createdAt,value
2023-05-02T00:00:49.825Z,8.98
2023-05-02T00:03:17.299Z,9.88
2023-05-02T00:05:44.605Z,10.25
2023-05-02T00:08:12.040Z,11.60
2023-05-02T00:10:38.620Z,11.65
2023-05-02T00:13:05.111Z,11.68
2023-05-02T00:15:31.529Z,11.70
2023-05-02T00:17:58.081Z,10.85
2023-05-02T00:20:24.699Z,11.13
2023-05-02T00:22:51.148Z,11.85
2023-05-02T00:25:17.670Z,10.65
2023-05-02T00:27:46.598Z,12.27
2023-05-02T00:30:14.071Z,11.02
2023-05-02T00:32:40.726Z,9.88
2023-05-02T00:35:08.101Z,11.07
2023-05-02T00:37:34.718Z,10.38
2023-05-02T00:40:02.017Z,11.57
2023-05-02T00:42:31.731Z,10.65
2023-05-02T00:44:58.320Z,10.90
2023-05-02T00:47:24.946Z,10.40
2023-05-02T00:49:51.541Z,10.05
2023-05-02T00:52:18.662Z,11.02
2023-05-02T00:54:45.524Z,10.63
2023-05-02T00:57:11.954Z,11.40
2023-05-02T00:59:39.062Z,10.40
2023-05-02T01:02:31.932Z,9.80
2023-05-02T01:05:20.085Z,10.77
2023-05-02T01:08:05.447Z,9.52
2023-05-02T01:10:47.646Z,9.60
2023-05-02T01:13:20.796Z,9.65
2023-05-02T01:15:51.575Z,8.73
2023-05-02T01:18:22.412Z,9.93
2023-05-02T01:20:57.295Z,8.57
2023-05-02T01:23:32.782Z,9.25
2023-05-02T01:26:23.632Z,10.10
2023-05-02T01:28:59.492Z,10.07
2023-05-02T01:31:28.975Z,9.55
2023-05-02T01:33:57.417Z,9.32
2023-05-02T01:36:27.047Z,9.43
2023-05-02T01:38:55.772Z,9.60
2023-05-02T01:41:26.330Z,9.30
2023-05-02T01:43:56.714Z,9.63
2023-05-02T01:46:25.365Z,9.70
2023-05-02T01:48:52.994Z,8.55
2023-05-02T01:51:21.445Z,9.77
2023-05-02T01:53:50.340Z,10.70
2023-05-02T01:56:19.565Z,11.38
2023-05-02T01:58:47.598Z,9.60
2023-05-02T02:01:15.516Z,10.70
2023-05-02T02:03:43.399Z,9.90
2023-05-02T02:06:11.258Z,9.70
2023-05-02T02:08:38.605Z,10.30
2023-05-02T02:11:10.686Z,9.45
2023-05-02T02:13:41.986Z,10.07
2023-05-02T02:18:39.339Z,10.25
2023-05-02T02:21:11.248Z,9.93
2023-05-02T02:23:39.753Z,10.10
2023-05-02T02:26:07.974Z,9.00
2023-05-02T02:28:34.617Z,9.35
2023-05-02T02:31:01.401Z,9.13
2023-05-02T02:33:31.661Z,8.77
2023-05-02T02:36:13.419Z,9.65
2023-05-02T02:41:21.017Z,8.73
2023-05-02T02:44:19.147Z,9.57
2023-05-02T02:47:05.857Z,9.32
2023-05-02T02:49:50.867Z,9.55
2023-05-02T02:52:50.447Z,9.50
2023-05-02T02:55:37.352Z,9.10
2023-05-02T02:58:25.629Z,9.45
2023-05-02T03:00:53.130Z,9.68
2023-05-02T03:03:22.577Z,10.13
2023-05-02T03:05:51.678Z,9.82
2023-05-02T03:08:18.206Z,9.85
2023-05-02T03:10:44.674Z,10.25
2023-05-02T03:13:11.164Z,9.85
2023-05-02T03:15:51.439Z,10.38
2023-05-02T03:18:22.288Z,10.73
2023-05-02T03:20:48.710Z,9.68
2023-05-02T03:23:15.208Z,10.40
2023-05-02T03:25:41.963Z,9.70
2023-05-02T03:28:11.673Z,11.07
2023-05-02T03:30:40.761Z,10.07
2023-05-02T03:33:08.943Z,10.50
2023-05-02T03:35:36.997Z,9.85
2023-05-02T03:38:03.431Z,10.60
2023-05-02T03:40:29.923Z,10.82
2023-05-02T03:42:57.335Z,10.05
2023-05-02T03:45:29.622Z,10.05
2023-05-02T03:47:56.386Z,11.27
2023-05-02T03:50:23.654Z,11.40
2023-05-02T03:52:51.961Z,12.35
2023-05-02T03:55:25.112Z,11.68
2023-05-02T03:57:52.038Z,11.07
2023-05-02T04:00:18.617Z,11.25
2023-05-02T04:02:52.113Z,11.10
2023-05-02T04:05:22.110Z,11.18
2023-05-02T04:07:49.826Z,11.20
2023-05-02T04:10:18.020Z,14.13
2023-05-02T04:12:51.100Z,17.90
2023-05-02T04:15:18.759Z,16.13
2023-05-02T04:17:47.083Z,14.77
2023-05-02T04:20:15.727Z,13.13
2023-05-02T04:22:48.076Z,13.50
2023-05-02T04:25:15.231Z,13.27
2023-05-02T04:27:42.689Z,13.20
2023-05-02T04:30:12.508Z,12.55
2023-05-02T04:32:41.328Z,14.13
2023-05-02T04:35:10.044Z,14.65
2023-05-02T04:37:38.123Z,14.60
2023-05-02T04:40:06.191Z,14.20
2023-05-02T04:42:32.771Z,13.68
2023-05-02T04:45:09.308Z,13.63
2023-05-02T04:47:36.276Z,13.35
2023-05-02T04:50:02.931Z,13.80
2023-05-02T04:52:30.538Z,14.95
2023-05-02T04:54:57.375Z,15.25
2023-05-02T04:57:24.591Z,15.27
2023-05-02T04:59:55.121Z,14.07
2023-05-02T05:02:21.702Z,13.98
2023-05-02T05:04:48.236Z,15.10
2023-05-02T05:07:16.207Z,13.82
2023-05-02T05:09:46.436Z,13.95
2023-05-02T05:12:13.756Z,13.93
2023-05-02T05:14:40.379Z,14.65
2023-05-02T05:17:07.581Z,14.25
2023-05-02T05:19:34.668Z,15.25
2023-05-02T05:22:01.732Z,15.32
2023-05-02T05:24:28.215Z,16.00
2023-05-02T05:26:57.159Z,16.30
2023-05-02T05:29:23.800Z,17.02
2023-05-02T05:31:50.374Z,18.05
2023-05-02T05:34:19.497Z,17.33
2023-05-02T05:36:47.109Z,17.17
2023-05-02T05:39:13.825Z,18.50
2023-05-02T05:41:43.197Z,16.83
2023-05-02T05:44:11.325Z,18.48
2023-05-02T05:46:38.316Z,18.17
2023-05-02T05:49:06.383Z,18.60
2023-05-02T05:51:33.713Z,16.88
2023-05-02T05:54:00.710Z,17.88
2023-05-02T05:56:28.070Z,18.88
2023-05-02T05:59:00.712Z,17.75
2023-05-02T06:01:27.127Z,17.95
2023-05-02T06:03:54.407Z,17.38
2023-05-02T06:06:21.135Z,17.92
2023-05-02T06:08:47.618Z,18.25
2023-05-02T06:11:14.428Z,16.75
2023-05-02T06:13:40.897Z,16.83
2023-05-02T06:16:08.233Z,17.50
2023-05-02T06:18:35.118Z,19.67
2023-05-02T06:21:05.682Z,17.00
2023-05-02T06:23:33.350Z,18.38
2023-05-02T06:26:01.278Z,18.73
2023-05-02T06:28:28.230Z,17.67
2023-05-02T06:31:05.892Z,16.40
2023-05-02T06:33:33.731Z,17.83
2023-05-02T06:36:01.695Z,16.88
2023-05-02T06:38:28.702Z,16.65
2023-05-02T06:40:55.118Z,16.50
2023-05-02T06:43:21.580Z,15.05
2023-05-02T06:45:48.035Z,15.77
2023-05-02T06:48:15.190Z,16.92
2023-05-02T06:50:41.659Z,16.25
2023-05-02T06:53:08.053Z,15.90
2023-05-02T06:55:34.538Z,16.27
2023-05-02T06:58:01.001Z,15.50
2023-05-02T07:00:27.503Z,17.27
2023-05-02T07:02:53.976Z,16.33
2023-05-02T07:05:20.478Z,15.30
2023-05-02T07:07:46.945Z,15.18
2023-05-02T07:10:13.513Z,15.75
2023-05-02T07:12:39.919Z,16.48
2023-05-02T07:15:07.030Z,15.80
2023-05-02T07:17:33.807Z,16.50
2023-05-02T07:20:00.772Z,18.10
2023-05-02T07:22:27.553Z,18.60
2023-05-02T07:25:02.239Z,17.60
2023-05-02T07:27:28.757Z,17.85
2023-05-02T07:29:55.201Z,18.77
2023-05-02T07:32:22.373Z,17.80
2023-05-02T07:34:48.988Z,18.15
2023-05-02T07:37:15.452Z,17.45
2023-05-02T07:39:41.912Z,19.08
2023-05-02T07:42:08.372Z,20.75
2023-05-02T07:44:35.985Z,21.75
2023-05-02T07:47:02.716Z,20.00
2023-05-02T07:49:29.354Z,22.60
2023-05-02T07:51:56.168Z,21.95
2023-05-02T07:54:22.964Z,17.15
2023-05-02T07:56:49.372Z,18.40
2023-05-02T07:59:15.908Z,18.23
2023-05-02T08:01:42.932Z,19.52
2023-05-02T08:04:11.632Z,18.77
2023-05-02T08:06:38.547Z,29.63
2023-05-02T08:09:05.034Z,19.83
2023-05-02T08:11:31.515Z,18.80
2023-05-02T08:13:57.950Z,19.08
2023-05-02T08:16:24.523Z,18.83
2023-05-02T08:18:50.975Z,19.38
2023-05-02T08:21:17.442Z,19.05
2023-05-02T08:23:45.201Z,18.48
2023-05-02T08:26:11.658Z,17.85
2023-05-02T08:28:38.077Z,18.33
2023-05-02T08:31:04.496Z,17.50
2023-05-02T08:33:31.022Z,18.67
2023-05-02T08:35:57.450Z,19.98
2023-05-02T08:38:23.868Z,16.80
2023-05-02T08:40:50.482Z,18.10
2023-05-02T08:43:18.002Z,18.08
2023-05-02T08:45:45.492Z,16.90
2023-05-02T08:48:13.797Z,17.15
2023-05-02T08:50:42.521Z,16.60
2023-05-02T08:53:10.852Z,17.05
2023-05-02T08:55:42.283Z,15.88
2023-05-02T08:58:10.710Z,16.17
2023-05-02T09:00:41.714Z,16.85
2023-05-02T09:03:26.967Z,16.25
2023-05-02T09:05:59.129Z,14.75
2023-05-02T09:08:25.656Z,15.18
2023-05-02T09:10:52.321Z,16.20
2023-05-02T09:13:36.045Z,16.77
2023-05-02T09:16:16.706Z,14.52
2023-05-02T09:18:45.633Z,13.90
2023-05-02T09:21:19.688Z,12.77
2023-05-02T09:23:49.531Z,13.75
2023-05-02T09:26:19.978Z,13.60
2023-05-02T09:28:48.800Z,13.07
2023-05-02T09:31:26.930Z,13.50
2023-05-02T09:34:08.655Z,13.23
2023-05-02T09:36:41.061Z,12.52
2023-05-02T09:39:16.290Z,12.10
2023-05-02T09:41:43.966Z,12.65
2023-05-02T09:44:12.516Z,13.68
2023-05-02T09:46:43.997Z,13.05
2023-05-02T09:49:10.788Z,12.63
2023-05-02T09:51:37.507Z,12.43
2023-05-02T09:54:04.479Z,12.55
2023-05-02T09:56:31.011Z,12.45
2023-05-02T09:59:16.466Z,11.85
2023-05-02T10:01:43.616Z,12.75
2023-05-02T10:04:18.725Z,12.40
2023-05-02T10:06:46.209Z,11.68
2023-05-02T10:09:19.684Z,13.32
2023-05-02T10:11:53.062Z,12.85
2023-05-02T10:14:22.486Z,13.70
2023-05-02T10:17:05.727Z,13.10
2023-05-02T10:19:54.656Z,13.20
2023-05-02T10:22:23.022Z,12.65
2023-05-02T10:24:50.428Z,12.77
2023-05-02T10:27:17.170Z,14.48
2023-05-02T10:29:44.176Z,13.13
2023-05-02T10:32:11.135Z,11.20
2023-05-02T10:34:39.036Z,12.52
2023-05-02T10:37:05.504Z,11.40
2023-05-02T10:39:32.590Z,12.90
2023-05-02T10:42:02.165Z,13.43
2023-05-02T10:44:36.330Z,13.00
2023-05-02T10:47:25.299Z,10.95
2023-05-02T10:50:02.404Z,11.23
2023-05-02T10:52:32.737Z,11.10
2023-05-02T10:55:21.938Z,11.30
2023-05-02T10:57:57.443Z,12.77
2023-05-02T11:00:34.103Z,11.90
2023-05-02T11:03:01.939Z,11.65
2023-05-02T11:05:28.864Z,10.13
2023-05-02T11:08:19.325Z,9.45
2023-05-02T11:10:47.268Z,9.85
2023-05-02T11:13:13.854Z,10.57
2023-05-02T11:15:40.291Z,9.75
2023-05-02T11:18:13.986Z,9.75
2023-05-02T11:20:45.462Z,10.43
2023-05-02T11:23:15.393Z,12.73
2023-05-02T11:26:03.365Z,10.88
2023-05-02T11:28:48.381Z,9.77
2023-05-02T11:31:27.251Z,9.20
2023-05-02T11:34:01.346Z,9.25
2023-05-02T11:36:33.412Z,8.82
2023-05-02T11:39:01.462Z,8.57
2023-05-02T11:41:43.396Z,10.02
2023-05-02T11:44:10.299Z,9.95
2023-05-02T11:46:37.365Z,9.80
2023-05-02T11:49:06.174Z,8.68
2023-05-02T11:51:33.753Z,8.98
2023-05-02T11:54:00.364Z,8.80
2023-05-02T11:56:27.422Z,9.05
2023-05-02T11:59:01.231Z,9.30
2023-05-02T12:01:27.953Z,8.18
2023-05-02T12:04:08.248Z,8.10
2023-05-02T12:06:35.316Z,10.05
2023-05-02T12:09:17.846Z,13.20
2023-05-02T12:11:44.779Z,8.35
2023-05-02T12:14:11.269Z,8.20
2023-05-02T12:16:37.911Z,8.98
2023-05-02T12:19:04.786Z,9.05
2023-05-02T12:21:33.094Z,9.90
2023-05-02T12:24:01.150Z,9.02
2023-05-02T12:26:30.818Z,9.23
2023-05-02T12:28:58.921Z,9.25
2023-05-02T12:31:26.669Z,10.07
2023-05-02T12:33:57.216Z,11.13
2023-05-02T12:36:24.206Z,9.93
2023-05-02T12:38:52.932Z,10.50
2023-05-02T12:41:31.406Z,11.73
2023-05-02T12:44:00.572Z,8.27
2023-05-02T12:46:28.332Z,5.78
2023-05-02T12:49:11.917Z,5.72
2023-05-02T12:51:39.792Z,4.60
2023-05-02T12:54:07.039Z,4.28
2023-05-02T12:56:40.605Z,4.65
2023-05-02T12:59:07.976Z,3.80
2023-05-02T13:01:34.804Z,4.20
2023-05-02T13:04:01.511Z,2.67
2023-05-02T13:06:28.011Z,2.60
2023-05-02T13:08:54.502Z,2.83
2023-05-02T13:11:21.011Z,3.10
2023-05-02T13:13:47.534Z,2.65
2023-05-02T13:16:14.120Z,2.65
2023-05-02T13:18:40.787Z,2.67
2023-05-02T13:21:07.569Z,2.30
2023-05-02T13:23:34.073Z,2.97
2023-05-02T13:26:00.495Z,2.28
2023-05-02T13:28:27.038Z,2.20
2023-05-02T13:30:53.551Z,1.90
2023-05-02T13:33:19.991Z,2.60
2023-05-02T13:35:46.615Z,2.53
2023-05-02T13:38:13.126Z,3.25
2023-05-02T13:40:39.681Z,3.08
2023-05-02T13:43:06.232Z,3.58
2023-05-02T13:45:32.983Z,4.00
2023-05-02T13:47:59.470Z,5.15
2023-05-02T13:50:25.988Z,5.47
2023-05-02T13:52:52.433Z,7.03
2023-05-02T13:55:19.690Z,9.25
2023-05-02T13:57:46.409Z,9.20
2023-05-02T14:00:13.548Z,8.10
2023-05-02T14:02:40.144Z,7.18
2023-05-02T14:05:07.325Z,7.80
2023-05-02T14:07:33.786Z,6.78
2023-05-02T14:10:00.658Z,6.28
2023-05-02T14:12:27.449Z,5.80
2023-05-02T14:14:53.876Z,5.15
2023-05-02T14:17:21.310Z,5.28
2023-05-02T14:19:47.832Z,4.85
2023-05-02T14:22:14.313Z,5.78
2023-05-02T14:24:41.046Z,6.57
2023-05-02T14:27:12.804Z,9.13
2023-05-02T14:29:40.033Z,8.70
2023-05-02T14:32:07.235Z,8.85
2023-05-02T14:34:33.798Z,9.45
2023-05-02T14:37:00.321Z,9.80
2023-05-02T14:39:27.633Z,10.18
2023-05-02T14:41:54.188Z,10.88
2023-05-02T14:44:20.747Z,11.57
2023-05-02T14:46:47.297Z,11.82
2023-05-02T14:49:13.724Z,11.95
2023-05-02T14:51:40.292Z,10.45
2023-05-02T14:54:07.159Z,9.73
2023-05-02T14:56:33.717Z,9.15
2023-05-02T14:59:00.359Z,9.25
2023-05-02T15:01:26.901Z,10.02
2023-05-02T15:04:06.055Z,10.48
2023-05-02T15:06:35.626Z,10.60
2023-05-02T15:09:02.788Z,10.73
2023-05-02T15:11:29.209Z,10.50
2023-05-02T15:13:57.555Z,11.02
2023-05-02T15:16:26.977Z,10.43
2023-05-02T15:18:53.849Z,9.02
2023-05-02T15:21:20.497Z,7.85
2023-05-02T15:23:47.433Z,8.40
2023-05-02T15:26:14.145Z,7.70
2023-05-02T15:28:40.872Z,7.40
2023-05-02T15:31:07.370Z,7.63
2023-05-02T15:33:33.851Z,9.55
2023-05-02T15:36:00.570Z,8.52
2023-05-02T15:38:27.876Z,8.27
2023-05-02T15:40:58.733Z,9.27
2023-05-02T15:43:26.137Z,8.52
2023-05-02T15:45:57.401Z,7.00
2023-05-02T15:48:27.577Z,9.10
2023-05-02T15:50:54.001Z,8.30
2023-05-02T15:53:22.936Z,7.57
2023-05-02T15:55:52.636Z,7.78
2023-05-02T15:58:19.715Z,7.18
2023-05-02T16:00:51.783Z,7.05
2023-05-02T16:03:18.463Z,7.65
2023-05-02T16:05:44.946Z,8.10
2023-05-02T16:08:11.416Z,7.97
2023-05-02T16:10:40.204Z,7.20
2023-05-02T16:13:06.658Z,6.75
2023-05-02T16:15:33.266Z,7.53
2023-05-02T16:17:59.909Z,7.68
2023-05-02T16:20:27.679Z,7.45
2023-05-02T16:22:54.430Z,6.50
2023-05-02T16:25:21.144Z,6.45
2023-05-02T16:27:47.592Z,6.90
2023-05-02T16:30:15.704Z,5.97
2023-05-02T16:32:42.284Z,6.47
2023-05-02T16:35:12.300Z,7.32
2023-05-02T16:37:40.911Z,7.00
2023-05-02T16:40:11.118Z,7.30
2023-05-02T16:42:38.267Z,6.97
2023-05-02T16:45:05.071Z,6.07
2023-05-02T16:47:31.984Z,5.30
2023-05-02T16:49:59.472Z,5.35
2023-05-02T16:52:27.786Z,6.20
2023-05-02T16:54:54.872Z,6.35
2023-05-02T16:57:21.502Z,5.97
2023-05-02T16:59:50.646Z,6.07
2023-05-02T17:02:19.222Z,5.90
2023-05-02T17:04:45.977Z,6.55
2023-05-02T17:07:12.543Z,7.50
2023-05-02T17:09:41.335Z,8.20
2023-05-02T17:12:11.474Z,8.00
2023-05-02T17:14:40.377Z,8.23
2023-05-02T17:17:06.900Z,7.82
2023-05-02T17:19:33.411Z,8.23
2023-05-02T17:22:01.390Z,8.55
2023-05-02T17:24:29.939Z,8.38
2023-05-02T17:26:56.896Z,9.20
2023-05-02T17:29:23.370Z,8.73
2023-05-02T17:31:49.821Z,8.88
2023-05-02T17:34:16.335Z,9.15
2023-05-02T17:36:43.561Z,9.40
2023-05-02T17:39:11.495Z,9.75
2023-05-02T17:41:38.127Z,10.20
2023-05-02T17:44:07.288Z,10.95
2023-05-02T17:46:33.832Z,10.45
2023-05-02T17:49:00.971Z,10.32
2023-05-02T17:51:27.916Z,10.27
2023-05-02T17:53:54.506Z,10.45
2023-05-02T17:56:21.024Z,9.90
2023-05-02T17:58:47.458Z,9.30
2023-05-02T18:01:14.339Z,8.82
2023-05-02T18:03:41.723Z,8.00
2023-05-02T18:06:08.575Z,8.18
2023-05-02T18:08:35.181Z,7.03
2023-05-02T18:11:03.226Z,6.93
2023-05-02T18:13:29.785Z,6.68
2023-05-02T18:15:57.326Z,6.32
2023-05-02T18:18:23.999Z,6.68
2023-05-02T18:20:50.580Z,5.50
2023-05-02T18:23:17.065Z,7.43
2023-05-02T18:25:44.116Z,8.38
2023-05-02T18:28:10.657Z,9.00
2023-05-02T18:30:37.908Z,8.23
2023-05-02T18:33:06.314Z,7.93
2023-05-02T18:35:33.286Z,8.38
2023-05-02T18:37:59.716Z,8.40
2023-05-02T18:40:26.132Z,8.18
2023-05-02T18:42:52.594Z,8.90
2023-05-02T18:45:19.121Z,8.93
2023-05-02T18:47:45.531Z,9.68
2023-05-02T18:50:11.986Z,10.10
2023-05-02T18:52:38.474Z,9.63
2023-05-02T18:55:06.105Z,8.75
2023-05-02T18:57:33.816Z,9.70
2023-05-02T19:00:00.944Z,10.82
2023-05-02T19:02:27.655Z,14.40
2023-05-02T19:04:54.401Z,8.85
2023-05-02T19:07:20.818Z,9.60
2023-05-02T19:09:47.261Z,8.65
2023-05-02T19:12:13.682Z,9.48
2023-05-02T19:14:40.274Z,10.05
2023-05-02T19:17:06.857Z,10.30
2023-05-02T19:19:33.289Z,14.38
2023-05-02T19:21:59.697Z,12.27
2023-05-02T19:24:26.354Z,9.95
2023-05-02T19:26:53.248Z,9.07
2023-05-02T19:29:19.670Z,10.18
2023-05-02T19:31:46.335Z,9.32
2023-05-02T19:34:12.962Z,9.15
2023-05-02T19:36:39.446Z,9.60
2023-05-02T19:39:06.292Z,10.07
2023-05-02T19:41:32.830Z,9.18
2023-05-02T19:43:59.928Z,11.45
2023-05-02T19:46:26.904Z,10.95
2023-05-02T19:48:53.470Z,10.52
2023-05-02T19:51:25.681Z,10.98
2023-05-02T19:53:58.459Z,11.63
2023-05-02T19:56:28.710Z,11.57
2023-05-02T19:58:58.548Z,12.07
2023-05-02T20:01:28.221Z,10.85
2023-05-02T20:03:55.090Z,10.77
2023-05-02T20:06:21.708Z,11.10
2023-05-02T20:08:48.151Z,10.13
2023-05-02T20:11:14.589Z,10.90
2023-05-02T20:13:41.025Z,9.82
2023-05-02T20:16:07.591Z,12.52
2023-05-02T20:18:34.124Z,12.48
2023-05-02T20:21:00.562Z,11.88
2023-05-02T20:23:27.012Z,11.77
2023-05-02T20:25:53.406Z,11.68
2023-05-02T20:28:19.875Z,11.57
2023-05-02T20:30:46.398Z,11.45
2023-05-02T20:33:16.029Z,12.07
2023-05-02T20:35:44.456Z,11.68
2023-05-02T20:38:11.121Z,12.20
2023-05-02T20:40:39.652Z,11.88
2023-05-02T20:43:06.503Z,12.07
2023-05-02T20:45:33.385Z,10.15
2023-05-02T20:47:59.878Z,10.10
2023-05-02T20:50:27.139Z,10.52
2023-05-02T20:52:54.276Z,10.68
2023-05-02T20:55:22.641Z,10.60
2023-05-02T20:57:53.017Z,11.63
2023-05-02T21:00:22.335Z,12.55
2023-05-02T21:02:49.022Z,11.77
2023-05-02T21:05:15.714Z,11.93
2023-05-02T21:07:42.151Z,11.38
2023-05-02T21:10:09.319Z,10.65
2023-05-02T21:12:35.771Z,11.88
2023-05-02T21:15:02.412Z,10.95
2023-05-02T21:17:28.944Z,11.13
2023-05-02T21:19:58.329Z,10.98
2023-05-02T21:22:24.789Z,10.60
2023-05-02T21:24:51.314Z,11.07
2023-05-02T21:27:17.754Z,11.02
2023-05-02T21:29:44.226Z,11.35
2023-05-02T21:32:10.767Z,10.77
2023-05-02T21:34:37.361Z,11.20
2023-05-02T21:37:04.066Z,11.40
2023-05-02T21:39:30.556Z,10.70
2023-05-02T21:41:57.008Z,10.57
2023-05-02T21:44:23.417Z,9.77
2023-05-02T21:46:50.712Z,10.20
2023-05-02T21:49:17.212Z,10.68
2023-05-02T21:51:43.652Z,10.18
2023-05-02T21:54:10.195Z,9.55
2023-05-02T21:56:36.664Z,10.30
2023-05-02T21:59:03.420Z,8.25
2023-05-02T22:01:30.006Z,7.75
2023-05-02T22:03:57.937Z,7.63
2023-05-02T22:06:24.787Z,7.00
2023-05-02T22:08:51.485Z,7.65
2023-05-02T22:11:18.045Z,6.80
2023-05-02T22:13:44.543Z,6.53
2023-05-02T22:16:11.032Z,7.00
2023-05-02T22:18:37.662Z,6.57
2023-05-02T22:21:04.125Z,6.63
2023-05-02T22:23:31.127Z,6.70
2023-05-02T22:25:57.701Z,6.22
2023-05-02T22:28:24.420Z,7.00
2023-05-02T22:30:50.936Z,7.15
2023-05-02T22:33:17.439Z,6.57
2023-05-02T22:35:43.845Z,6.78
2023-05-02T22:38:15.038Z,7.38
2023-05-02T22:43:08.308Z,7.00
2023-05-02T22:45:36.416Z,7.10
2023-05-02T22:48:03.066Z,7.40
2023-05-02T22:50:30.182Z,7.28
2023-05-02T22:52:57.118Z,7.25
2023-05-02T22:55:24.324Z,6.75
2023-05-02T22:57:50.951Z,7.13
2023-05-02T23:00:17.601Z,6.85
2023-05-02T23:02:44.502Z,6.25
2023-05-02T23:05:11.029Z,6.88
2023-05-02T23:07:37.766Z,7.00
2023-05-02T23:10:04.828Z,6.40
2023-05-02T23:12:31.477Z,7.05
2023-05-02T23:14:58.048Z,7.10
2023-05-02T23:17:24.553Z,7.43
2023-05-02T23:19:51.040Z,8.27
2023-05-02T23:22:17.495Z,8.65
2023-05-02T23:24:47.307Z,7.38
2023-05-02T23:27:13.734Z,7.38
2023-05-02T23:29:40.198Z,7.10
2023-05-02T23:32:08.042Z,6.70
2023-05-02T23:34:36.505Z,7.13
2023-05-02T23:37:05.645Z,7.40
2023-05-02T23:39:32.654Z,6.60
2023-05-02T23:42:00.622Z,7.45
2023-05-02T23:44:27.076Z,6.57
2023-05-02T23:46:53.601Z,7.43
2023-05-02T23:49:20.489Z,7.20
2023-05-02T23:51:47.163Z,7.05
2023-05-02T23:54:13.617Z,7.07
2023-05-02T23:56:40.022Z,6.82
2023-05-02T23:59:06.492Z,7.22
